createdAt,value
2022-08-20T00:00:09.283Z,17.75
2022-08-20T00:05:13.351Z,17.67
2022-08-20T00:10:18.974Z,17.65
2022-08-20T00:15:26.108Z,17.65
2022-08-20T00:20:36.288Z,17.65
2022-08-20T00:25:44.090Z,17.57
2022-08-20T00:30:48.717Z,17.47
2022-08-20T00:35:54.725Z,17.34
2022-08-20T00:41:00.549Z,17.28
2022-08-20T00:46:07.441Z,17.14
2022-08-20T00:51:16.007Z,17.17
2022-08-20T00:56:21.011Z,17.19
2022-08-20T01:01:24.534Z,17.14
2022-08-20T01:06:28.938Z,17.07
2022-08-20T01:11:37.932Z,17.03
2022-08-20T01:16:42.035Z,16.88
2022-08-20T01:21:49.631Z,16.79
2022-08-20T01:26:57.943Z,16.78
2022-08-20T01:32:02.485Z,16.72
2022-08-20T01:37:05.676Z,16.64
2022-08-20T01:42:14.114Z,16.59
2022-08-20T01:47:21.078Z,16.53
2022-08-20T01:52:32.469Z,16.40
2022-08-20T01:57:38.631Z,16.38
2022-08-20T02:02:42.531Z,16.34
2022-08-20T02:07:46.030Z,16.38
2022-08-20T02:12:51.131Z,16.34
2022-08-20T02:18:16.999Z,16.20
2022-08-20T02:23:20.657Z,16.24
2022-08-20T02:28:26.635Z,16.31
2022-08-20T02:33:30.168Z,16.34
2022-08-20T02:38:36.453Z,16.32
2022-08-20T02:43:41.212Z,16.39
2022-08-20T02:48:44.593Z,16.36
2022-08-20T02:53:48.499Z,16.50
2022-08-20T02:58:54.287Z,16.51
2022-08-20T03:03:59.238Z,16.56
2022-08-20T03:09:06.442Z,16.58
2022-08-20T03:14:11.793Z,16.74
2022-08-20T03:19:15.261Z,16.80
2022-08-20T03:24:18.897Z,16.93
2022-08-20T03:29:23.863Z,17.05
2022-08-20T03:34:27.245Z,17.12
2022-08-20T03:39:31.487Z,17.28
2022-08-20T03:44:37.237Z,17.39
2022-08-20T03:49:41.457Z,17.46
2022-08-20T03:54:46.166Z,18.18
2022-08-20T03:59:55.010Z,23.33
2022-08-20T04:05:02.058Z,26.18
2022-08-20T04:10:09.453Z,28.83
2022-08-20T04:15:17.338Z,30.66
2022-08-20T04:20:26.127Z,31.52
2022-08-20T04:25:36.110Z,32.36
2022-08-20T04:30:44.641Z,34.40
2022-08-20T04:35:52.486Z,35.44
2022-08-20T04:40:58.189Z,36.47
2022-08-20T04:46:09.792Z,35.79
2022-08-20T04:51:15.524Z,36.45
2022-08-20T04:56:19.873Z,34.92
2022-08-20T05:01:26.303Z,36.84
2022-08-20T05:06:32.028Z,34.46
2022-08-20T05:11:37.000Z,35.84
2022-08-20T05:16:42.245Z,37.72
2022-08-20T05:21:45.619Z,38.29
2022-08-20T05:26:49.119Z,38.46
2022-08-20T05:31:54.160Z,37.21
2022-08-20T05:36:57.567Z,38.35
2022-08-20T05:42:00.935Z,38.77
2022-08-20T05:47:06.746Z,33.21
2022-08-20T05:52:10.145Z,31.94
2022-08-20T05:57:14.106Z,31.58
2022-08-20T06:02:36.467Z,32.63
2022-08-20T06:07:39.905Z,31.95
2022-08-20T06:12:45.595Z,30.76
2022-08-20T06:17:58.136Z,29.61
2022-08-20T06:23:02.247Z,30.10
2022-08-20T06:28:06.288Z,34.15
2022-08-20T06:33:11.220Z,31.07
2022-08-20T06:38:15.550Z,27.73
2022-08-20T06:43:18.918Z,25.86
2022-08-20T06:48:23.410Z,24.20
2022-08-20T06:53:26.837Z,23.67
2022-08-20T06:58:36.739Z,23.48
2022-08-20T07:03:55.443Z,23.45
2022-08-20T07:08:59.599Z,25.42
2022-08-20T07:14:05.546Z,28.90
2022-08-20T07:19:10.427Z,35.00
2022-08-20T07:24:13.812Z,38.37
2022-08-20T07:29:21.755Z,38.34
2022-08-20T07:34:27.930Z,40.06
2022-08-20T07:39:32.022Z,40.63
2022-08-20T07:44:37.719Z,38.83
2022-08-20T07:49:43.250Z,35.06
2022-08-20T07:54:47.023Z,31.38
2022-08-20T07:59:50.670Z,30.41
2022-08-20T08:04:55.589Z,28.66
2022-08-20T08:09:59.983Z,28.28
2022-08-20T08:15:04.982Z,27.30
2022-08-20T08:20:12.342Z,25.88
2022-08-20T08:25:20.483Z,24.88
2022-08-20T08:30:24.270Z,25.28
2022-08-20T08:35:29.048Z,25.94
2022-08-20T08:40:35.077Z,25.39
2022-08-20T08:45:48.679Z,25.64
2022-08-20T08:50:57.547Z,25.53
2022-08-20T08:56:02.014Z,25.85
2022-08-20T09:01:52.999Z,25.17
2022-08-20T09:06:40.587Z,24.56
2022-08-20T09:11:50.799Z,24.26
2022-08-20T09:16:55.167Z,23.96
2022-08-20T09:22:00.059Z,23.67
2022-08-20T09:27:03.624Z,23.29
2022-08-20T09:32:09.186Z,23.17
2022-08-20T09:37:15.114Z,22.92
2022-08-20T09:42:22.121Z,22.78
2022-08-20T09:47:25.974Z,22.65
2022-08-20T09:52:38.874Z,22.69
2022-08-20T09:57:44.136Z,22.61
2022-08-20T10:02:47.954Z,22.29
2022-08-20T10:07:53.048Z,21.87
2022-08-20T10:12:56.457Z,21.44
2022-08-20T10:17:59.911Z,21.37
2022-08-20T10:23:05.389Z,21.32
2022-08-20T10:28:08.823Z,20.99
2022-08-20T10:33:12.407Z,20.91
2022-08-20T10:38:17.997Z,20.84
2022-08-20T10:43:21.457Z,20.69
2022-08-20T10:48:25.459Z,20.69
2022-08-20T10:53:30.777Z,20.43
2022-08-20T10:58:39.743Z,20.46
2022-08-20T11:03:45.222Z,20.25
2022-08-20T11:08:51.260Z,20.18
2022-08-20T11:13:56.443Z,20.00
2022-08-20T11:18:59.909Z,20.12
2022-08-20T11:24:05.261Z,20.05
2022-08-20T11:29:09.767Z,19.84
2022-08-20T11:34:13.558Z,19.73
2022-08-20T11:39:20.147Z,19.86
2022-08-20T11:44:23.779Z,19.88
2022-08-20T11:49:27.351Z,19.79
2022-08-20T11:54:32.686Z,19.89
2022-08-20T11:59:37.321Z,19.98
2022-08-20T12:04:41.142Z,20.08
2022-08-20T12:09:50.920Z,20.33
2022-08-20T12:14:56.362Z,20.47
2022-08-20T12:20:03.754Z,20.50
2022-08-20T12:25:10.447Z,20.63
2022-08-20T12:30:17.328Z,20.59
2022-08-20T12:35:21.274Z,20.74
2022-08-20T12:40:32.405Z,20.71
2022-08-20T12:45:38.287Z,20.84
2022-08-20T12:50:45.765Z,20.59
2022-08-20T12:55:50.917Z,20.50
2022-08-20T13:00:54.610Z,20.45
2022-08-20T13:05:58.556Z,20.56
2022-08-20T13:11:04.483Z,20.70
2022-08-20T13:16:08.353Z,20.54
2022-08-20T13:21:11.767Z,20.66
2022-08-20T13:26:16.782Z,20.68
2022-08-20T13:31:20.324Z,20.50
2022-08-20T13:36:26.056Z,20.65
2022-08-20T13:41:31.088Z,20.76
2022-08-20T13:46:34.528Z,21.03
2022-08-20T13:51:38.090Z,21.03
2022-08-20T13:56:42.915Z,21.13
2022-08-20T14:01:47.387Z,21.28
2022-08-20T14:06:50.937Z,21.33
2022-08-20T14:11:56.042Z,21.32
2022-08-20T14:16:59.407Z,21.46
2022-08-20T14:22:02.927Z,21.55
2022-08-20T14:27:08.944Z,21.69
2022-08-20T14:32:13.413Z,21.75
2022-08-20T14:37:19.279Z,21.85
2022-08-20T14:42:24.715Z,21.85
2022-08-20T14:47:30.477Z,21.58
2022-08-20T14:52:36.695Z,21.46
2022-08-20T14:57:42.391Z,21.45
2022-08-20T15:02:46.648Z,21.40
2022-08-20T15:07:54.119Z,21.49
2022-08-20T15:12:59.771Z,21.69
2022-08-20T15:18:03.727Z,21.73
2022-08-20T15:23:07.745Z,21.75
2022-08-20T15:28:12.721Z,21.77
2022-08-20T15:33:16.131Z,21.85
2022-08-20T15:38:19.606Z,21.81
2022-08-20T15:43:24.522Z,21.88
2022-08-20T15:48:38.925Z,21.79
2022-08-20T15:53:54.790Z,21.63
2022-08-20T15:59:14.357Z,21.57
2022-08-20T16:04:33.680Z,21.57
2022-08-20T16:09:50.072Z,21.52
2022-08-20T16:15:00.800Z,21.50
2022-08-20T16:20:13.776Z,21.48
2022-08-20T16:25:24.212Z,21.33
2022-08-20T16:30:40.185Z,21.23
2022-08-20T16:35:52.211Z,21.15
2022-08-20T16:41:01.098Z,21.03
2022-08-20T16:46:13.725Z,20.95
2022-08-20T16:51:22.389Z,20.82
2022-08-20T16:56:34.535Z,20.79
2022-08-20T17:01:40.690Z,20.69
2022-08-20T17:06:48.321Z,20.67
2022-08-20T17:11:54.521Z,20.63
2022-08-20T17:16:59.722Z,20.56
2022-08-20T17:22:10.717Z,20.49
2022-08-20T17:27:17.192Z,20.47
2022-08-20T17:32:26.191Z,20.41
2022-08-20T17:37:34.076Z,20.41
2022-08-20T17:42:48.571Z,20.36
2022-08-20T17:47:53.920Z,20.28
2022-08-20T17:53:02.363Z,20.17
2022-08-20T17:58:12.438Z,20.15
2022-08-20T18:03:24.501Z,20.07
2022-08-20T18:08:39.013Z,20.00
2022-08-20T18:14:27.361Z,20.12
2022-08-20T18:19:58.429Z,20.02
2022-08-20T18:25:07.837Z,20.08
2022-08-20T18:30:17.950Z,20.01
2022-08-20T18:35:33.345Z,19.98
2022-08-20T18:40:38.867Z,19.90
2022-08-20T18:45:42.870Z,19.83
2022-08-20T18:50:51.000Z,19.91
2022-08-20T18:56:02.737Z,19.84
2022-08-20T19:01:14.882Z,19.80
2022-08-20T19:06:31.963Z,19.72
2022-08-20T19:12:04.997Z,19.60
2022-08-20T19:17:12.629Z,19.55
2022-08-20T19:22:22.070Z,19.42
2022-08-20T19:27:26.866Z,19.27
2022-08-20T19:32:32.722Z,19.30
2022-08-20T19:37:51.266Z,19.16
2022-08-20T19:42:55.730Z,19.05
2022-08-20T19:48:15.910Z,19.01
2022-08-20T19:53:30.816Z,18.91
2022-08-20T19:58:36.750Z,18.81
2022-08-20T20:03:40.278Z,18.72
2022-08-20T20:08:51.422Z,18.66
2022-08-20T20:13:54.823Z,18.57
2022-08-20T20:19:22.635Z,18.48
2022-08-20T20:24:26.301Z,18.44
2022-08-20T20:29:37.397Z,18.40
2022-08-20T20:34:55.597Z,18.30
2022-08-20T20:40:12.390Z,18.31
2022-08-20T20:45:22.867Z,18.26
2022-08-20T20:50:32.695Z,18.23
2022-08-20T20:55:40.002Z,18.07
2022-08-20T21:00:43.383Z,18.19
2022-08-20T21:05:47.058Z,18.18
2022-08-20T21:10:51.908Z,18.20
2022-08-20T21:15:55.390Z,18.19
2022-08-20T21:20:58.850Z,18.25
2022-08-20T21:26:04.913Z,18.22
2022-08-20T21:31:08.427Z,18.17
2022-08-20T21:36:11.834Z,18.11
2022-08-20T21:41:16.791Z,18.19
2022-08-20T21:46:24.940Z,18.12
2022-08-20T21:51:28.569Z,18.15
2022-08-20T21:56:33.965Z,18.15
2022-08-20T22:01:38.330Z,18.00
2022-08-20T22:06:41.560Z,17.97
2022-08-20T22:11:49.572Z,17.88
2022-08-20T22:16:56.921Z,17.80
2022-08-20T22:22:00.369Z,17.71
2022-08-20T22:27:05.686Z,17.72
2022-08-20T22:32:09.204Z,17.68
2022-08-20T22:37:14.721Z,17.68
2022-08-20T22:42:19.536Z,17.67
2022-08-20T22:47:27.846Z,17.75
2022-08-20T22:52:32.989Z,17.74
2022-08-20T22:57:38.170Z,17.68
2022-08-20T23:02:43.406Z,17.67
2022-08-20T23:07:49.611Z,17.63
2022-08-20T23:12:58.889Z,17.62
2022-08-20T23:18:06.053Z,17.63
2022-08-20T23:23:09.555Z,17.60
2022-08-20T23:28:14.423Z,17.61
2022-08-20T23:33:18.106Z,17.51
2022-08-20T23:38:22.445Z,17.57
2022-08-20T23:43:27.253Z,17.45
2022-08-20T23:48:30.688Z,17.35
2022-08-20T23:53:34.070Z,17.29
2022-08-20T23:58:39.563Z,17.29
